Aviation Digital Data Service (ADDS)

Output produced by METARs form (1817 UTC 05 May 2015)
found at http://aviationweather.gov/adds/metars/
 
KLCH 051729Z 0518/0618 14017G23KT P6SM SCT040 BKN170 
     FM052300 12008KT P6SM SCT035 SCT250 
     FM060400 10007KT P6SM SCT022 BKN035 
     FM061000 10007KT P6SM SCT015 OVC021 
     FM061500 13010KT P6SM BKN030 BKN250